Time;durP1;ratioP1;P1;durP2;ratioP2;P2;SDS_P1;SDS_P2;PMS_P1;PMS_P2;Temp;Humidity;BMP_temperature;BMP_pressure;BME280_temperature;BME280_humidity;BME280_pressure;Samples;Min_cycle;Max_cycle;Signal;HPM_P1;HPM_P2
2022/04/20 00:02:07;;;;;;;1.20;0.60;;;15.90;57.90;;;;;;5007421;28;20166;-75
2022/04/20 00:04:35;;;;;;;0.95;0.50;;;16.00;58.00;;;;;;5006016;28;20066;-75
2022/04/20 00:07:03;;;;;;;1.88;0.70;;;15.90;57.90;;;;;;5002647;28;20070;-75
2022/04/20 00:09:33;;;;;;;1.05;0.52;;;15.90;57.90;;;;;;5000196;28;20048;-75
2022/04/20 00:12:01;;;;;;;1.00;0.57;;;15.90;57.90;;;;;;4972346;28;20563;-75
2022/04/20 00:14:34;;;;;;;1.08;0.55;;;15.90;57.90;;;;;;4993258;28;20304;-76
2022/04/20 00:17:11;;;;;;;1.20;0.70;;;16.00;58.00;;;;;;5003311;28;20141;-76
2022/04/20 00:19:56;;;;;;;1.25;0.50;;;15.90;57.90;;;;;;5004622;28;20042;-76
2022/04/20 00:22:41;;;;;;;1.00;0.50;;;15.90;57.90;;;;;;5003419;28;20058;-76
2022/04/20 00:25:09;;;;;;;0.95;0.52;;;15.90;58.00;;;;;;5004716;28;20496;-76
2022/04/20 00:27:38;;;;;;;1.23;0.70;;;15.90;57.90;;;;;;5006793;28;20057;-77
2022/04/20 00:30:09;;;;;;;1.10;0.60;;;15.90;57.90;;;;;;4985093;28;20038;-76
2022/04/20 00:32:37;;;;;;;0.98;0.60;;;15.90;57.90;;;;;;5003140;28;20095;-75
2022/04/20 00:35:07;;;;;;;1.10;0.68;;;15.90;57.90;;;;;;5001917;28;20049;-75
2022/04/20 00:37:36;;;;;;;1.20;0.60;;;15.90;57.90;;;;;;5004282;28;20037;-76
2022/04/20 00:40:07;;;;;;;1.10;0.63;;;16.00;58.00;;;;;;5000979;28;20041;-75
2022/04/20 00:42:37;;;;;;;1.02;0.70;;;15.90;58.00;;;;;;5003769;28;20062;-75
2022/04/20 00:45:08;;;;;;;1.00;0.50;;;15.90;57.90;;;;;;5000782;28;20042;-76
2022/04/20 00:47:45;;;;;;;1.08;0.60;;;15.90;58.00;;;;;;5003349;28;20045;-75
2022/04/20 00:50:31;;;;;;;1.10;0.65;;;15.90;58.00;;;;;;4997138;28;20038;-75
2022/04/20 00:53:03;;;;;;;1.20;0.50;;;15.90;58.00;;;;;;5003299;28;20034;-75
2022/04/20 00:55:30;;;;;;;1.10;0.65;;;15.90;58.00;;;;;;5000900;28;20037;-76
2022/04/20 00:57:57;;;;;;;0.93;0.60;;;16.00;58.00;;;;;;4998348;28;20096;-75
2022/04/20 01:00:27;;;;;;;1.25;0.63;;;15.90;58.00;;;;;;5009996;28;20057;-75
2022/04/20 01:03:06;;;;;;;1.08;0.60;;;15.90;58.00;;;;;;5022699;28;20048;-75
2022/04/20 01:05:41;;;;;;;1.02;0.60;;;15.90;58.00;;;;;;5020540;28;20119;-75
2022/04/20 01:08:20;;;;;;;1.20;0.70;;;15.90;58.00;;;;;;5021312;28;20037;-76
2022/04/20 01:10:49;;;;;;;1.10;0.57;;;15.90;58.00;;;;;;5017083;28;20041;-76
2022/04/20 01:13:18;;;;;;;1.58;0.73;;;15.90;58.00;;;;;;5020557;28;20084;-75
2022/04/20 01:15:50;;;;;;;1.38;0.70;;;15.90;58.00;;;;;;5022118;28;20493;-75
2022/04/20 01:18:22;;;;;;;0.90;0.55;;;15.90;58.00;;;;;;5022726;28;20050;-75
2022/04/20 01:20:56;;;;;;;1.10;0.65;;;15.90;58.00;;;;;;5023996;28;20037;-75
2022/04/20 01:23:31;;;;;;;2.97;0.70;;;15.90;58.10;;;;;;5025201;28;20125;-75
2022/04/20 01:25:59;;;;;;;1.27;0.68;;;15.90;58.10;;;;;;5024559;28;20037;-75
2022/04/20 01:28:26;;;;;;;1.63;0.60;;;15.80;58.10;;;;;;5024996;28;20073;-75
2022/04/20 01:31:00;;;;;;;1.17;0.80;;;15.90;58.20;;;;;;5022775;28;20060;-75
2022/04/20 01:33:40;;;;;;;1.08;0.68;;;15.90;58.20;;;;;;5004602;28;20095;-76
2022/04/20 01:36:10;;;;;;;1.50;0.70;;;15.80;58.20;;;;;;4997684;28;20095;-76
2022/04/20 01:38:53;;;;;;;1.48;0.60;;;15.90;58.30;;;;;;5002965;28;20041;-76
2022/04/20 01:41:25;;;;;;;0.93;0.50;;;15.90;58.40;;;;;;4998089;28;20049;-76
2022/04/20 01:44:06;;;;;;;0.98;0.60;;;15.90;58.50;;;;;;5019774;28;20045;-75
2022/04/20 01:46:33;;;;;;;1.42;0.90;;;15.90;58.60;;;;;;5011819;28;20052;-75
2022/04/20 01:49:06;;;;;;;1.48;0.60;;;15.90;58.50;;;;;;5018250;28;20041;-75
2022/04/20 01:51:54;;;;;;;1.52;0.60;;;15.80;58.50;;;;;;4999738;28;20056;-75
2022/04/20 01:54:39;;;;;;;1.75;0.70;;;15.90;58.70;;;;;;5019526;28;20146;-75
2022/04/20 01:57:06;;;;;;;1.15;0.60;;;15.80;58.60;;;;;;5016951;28;20123;-76
2022/04/20 01:59:38;;;;;;;1.23;0.70;;;15.80;58.70;;;;;;5033125;28;20040;-75
2022/04/20 02:05:04;;;;;;;1.38;0.60;;;15.80;58.70;;;;;;5025724;28;20041;-76
2022/04/20 02:07:36;;;;;;;1.20;0.73;;;15.80;58.70;;;;;;5002191;28;20073;-75
2022/04/20 02:10:07;;;;;;;0.90;0.65;;;15.80;58.70;;;;;;5003782;28;20037;-76
2022/04/20 02:12:35;;;;;;;1.30;0.60;;;15.80;58.80;;;;;;5014962;28;20408;-76
2022/04/20 02:15:06;;;;;;;2.17;0.70;;;15.80;58.70;;;;;;5013768;28;20725;-75
2022/04/20 02:17:36;;;;;;;1.40;0.70;;;15.80;58.70;;;;;;5020611;28;20033;-76
2022/04/20 02:20:04;;;;;;;1.33;0.70;;;15.80;58.80;;;;;;5022137;28;20103;-75
2022/04/20 02:22:33;;;;;;;1.77;0.70;;;15.80;58.70;;;;;;5021374;28;20068;-76
2022/04/20 02:25:01;;;;;;;1.25;0.70;;;15.80;58.70;;;;;;5021096;28;20091;-76
2022/04/20 02:27:29;;;;;;;1.50;0.60;;;15.80;58.70;;;;;;5018368;28;20037;-76
2022/04/20 02:29:56;;;;;;;1.30;0.80;;;15.80;58.70;;;;;;5001567;28;20045;-76
2022/04/20 02:32:26;;;;;;;1.67;0.80;;;15.90;59.40;;;;;;5021138;28;20099;-75
2022/04/20 02:34:53;;;;;;;1.27;0.68;;;15.80;58.90;;;;;;5021388;28;20059;-76
2022/04/20 02:37:29;;;;;;;1.10;0.68;;;15.80;58.70;;;;;;5015739;28;20049;-75
2022/04/20 02:39:58;;;;;;;1.15;0.70;;;15.80;58.80;;;;;;5013482;28;20041;-76
2022/04/20 02:42:31;;;;;;;1.30;0.70;;;15.70;58.80;;;;;;5020144;28;20045;-75
2022/04/20 02:44:58;;;;;;;1.40;0.65;;;15.70;58.60;;;;;;5018965;28;20412;-76
2022/04/20 02:47:31;;;;;;;1.33;0.77;;;15.70;58.60;;;;;;5019996;28;20132;-75
2022/04/20 02:50:00;;;;;;;1.42;0.75;;;15.70;58.60;;;;;;5021271;28;20495;-75
2022/04/20 02:52:39;;;;;;;1.33;0.63;;;15.70;58.80;;;;;;5020658;28;20052;-75
2022/04/20 02:55:07;;;;;;;1.00;0.60;;;15.80;58.60;;;;;;5017144;28;20053;-76
2022/04/20 02:57:35;;;;;;;1.48;0.90;;;15.70;58.70;;;;;;5018101;28;20411;-76
2022/04/20 03:00:03;;;;;;;1.80;0.80;;;15.70;58.70;;;;;;4996257;28;20054;-76
2022/04/20 03:02:30;;;;;;;1.40;0.70;;;15.70;58.60;;;;;;5000126;28;20377;-76
2022/04/20 03:04:57;;;;;;;1.80;0.70;;;15.70;58.60;;;;;;5003942;28;20440;-75
2022/04/20 03:07:27;;;;;;;1.05;0.60;;;15.70;58.60;;;;;;5005538;28;20060;-76
2022/04/20 03:09:54;;;;;;;1.38;0.77;;;15.70;58.80;;;;;;5002133;28;20042;-75
2022/04/20 03:12:31;;;;;;;1.83;0.90;;;15.70;58.60;;;;;;4993706;28;20042;-75
2022/04/20 03:15:00;;;;;;;1.45;0.85;;;15.70;58.70;;;;;;4999321;28;20046;-75
2022/04/20 03:17:28;;;;;;;1.20;0.63;;;15.70;58.70;;;;;;4998173;28;20556;-75
2022/04/20 03:19:55;;;;;;;1.00;0.60;;;15.70;58.80;;;;;;5001182;28;20050;-75
2022/04/20 03:22:34;;;;;;;1.60;0.80;;;15.70;58.80;;;;;;4993387;28;20555;-75
2022/04/20 03:25:07;;;;;;;1.42;0.60;;;15.60;58.70;;;;;;5000340;28;20053;-76
2022/04/20 03:27:35;;;;;;;1.17;0.65;;;15.70;58.80;;;;;;4986904;28;20533;-75
2022/04/20 03:30:03;;;;;;;1.50;0.80;;;15.70;58.70;;;;;;4997547;28;20085;-75
2022/04/20 03:32:33;;;;;;;1.60;0.70;;;15.70;58.70;;;;;;5002775;28;20050;-75
2022/04/20 03:35:00;;;;;;;1.30;0.80;;;15.70;58.70;;;;;;5000704;28;20054;-76
2022/04/20 03:37:43;;;;;;;1.13;0.70;;;15.70;58.60;;;;;;5004131;28;20045;-76
2022/04/20 03:40:15;;;;;;;1.42;0.82;;;15.70;58.80;;;;;;5003754;28;20050;-75
2022/04/20 03:42:42;;;;;;;1.65;0.70;;;15.70;58.80;;;;;;4999487;28;20251;-76
2022/04/20 03:45:10;;;;;;;1.60;0.80;;;15.70;58.80;;;;;;5002345;28;20057;-76
2022/04/20 03:47:38;;;;;;;1.30;0.52;;;15.70;58.70;;;;;;4998646;28;20050;-76
2022/04/20 03:50:08;;;;;;;2.42;0.80;;;15.70;58.70;;;;;;5004019;28;20049;-76
2022/04/20 03:52:35;;;;;;;1.58;0.73;;;15.70;58.80;;;;;;5006589;28;20365;-76
2022/04/20 03:55:07;;;;;;;1.38;0.73;;;15.60;58.80;;;;;;5004042;28;20057;-76
2022/04/20 03:57:34;;;;;;;1.63;0.70;;;15.60;58.70;;;;;;5017605;28;20073;-76
2022/04/20 04:00:07;;;;;;;1.60;0.80;;;15.70;58.80;;;;;;5002386;28;20722;-75
2022/04/20 04:02:36;;;;;;;1.40;0.80;;;15.60;58.60;;;;;;5007699;28;20052;-75
2022/04/20 04:05:04;;;;;;;1.08;0.63;;;15.60;58.60;;;;;;4981049;28;20056;-75
2022/04/20 04:07:30;;;;;;;1.20;0.80;;;15.60;58.50;;;;;;5005545;28;20048;-76
2022/04/20 04:10:00;;;;;;;2.38;0.77;;;15.60;58.60;;;;;;5003464;28;20396;-76
2022/04/20 04:12:27;;;;;;;1.67;0.80;;;15.60;58.70;;;;;;4981018;28;20046;-75
2022/04/20 04:14:54;;;;;;;1.40;0.80;;;15.60;58.70;;;;;;5001988;28;20416;-76
2022/04/20 04:17:24;;;;;;;1.10;0.70;;;15.60;58.60;;;;;;4979932;28;20057;-75
2022/04/20 04:19:53;;;;;;;1.38;0.80;;;15.60;58.70;;;;;;5003888;28;20070;-76
2022/04/20 04:22:21;;;;;;;1.30;0.65;;;15.60;58.70;;;;;;4986689;28;20057;-75
2022/04/20 04:24:57;;;;;;;2.03;0.80;;;15.50;58.50;;;;;;4999641;28;20129;-75
2022/04/20 04:27:42;;;;;;;1.45;0.80;;;15.60;58.70;;;;;;4999575;28;20045;-75
2022/04/20 04:30:11;;;;;;;1.10;0.70;;;15.60;58.60;;;;;;5002447;28;20108;-75
2022/04/20 04:32:38;;;;;;;1.15;0.70;;;15.60;58.50;;;;;;5002641;28;20034;-76
2022/04/20 04:35:09;;;;;;;1.30;0.75;;;15.60;58.70;;;;;;4996906;28;20046;-75
2022/04/20 04:37:35;;;;;;;1.35;0.80;;;15.60;58.60;;;;;;5002077;28;20048;-75
2022/04/20 04:40:03;;;;;;;1.13;0.73;;;15.60;58.50;;;;;;4985153;28;20053;-76
2022/04/20 04:42:33;;;;;;;1.63;0.85;;;15.60;58.60;;;;;;4995634;28;20046;-75
2022/04/20 04:50:40;;;;;;;2.13;0.80;;;15.60;58.60;;;;;;5003387;28;20393;-75
2022/04/20 04:53:07;;;;;;;1.63;0.90;;;15.50;58.50;;;;;;5002696;28;20042;-76
2022/04/20 04:55:34;;;;;;;1.50;0.70;;;15.50;58.50;;;;;;5003454;28;20038;-75
2022/04/20 04:58:02;;;;;;;1.13;0.70;;;15.60;58.60;;;;;;4983034;28;20097;-76
2022/04/20 05:00:35;;;;;;;1.48;0.75;;;15.60;58.50;;;;;;5012030;28;20423;-75
2022/04/20 05:03:08;;;;;;;1.73;0.90;;;15.50;58.50;;;;;;5023220;28;20054;-75
2022/04/20 05:05:35;;;;;;;2.45;0.75;;;15.60;58.50;;;;;;5022205;28;20041;-75
2022/04/20 05:08:08;;;;;;;1.15;0.63;;;15.50;58.40;;;;;;5003807;28;20073;-75
2022/04/20 05:10:36;;;;;;;1.40;0.80;;;15.50;58.40;;;;;;5022731;28;20060;-75
2022/04/20 05:13:03;;;;;;;1.88;0.80;;;15.50;58.50;;;;;;5021433;28;20045;-75
2022/04/20 05:15:32;;;;;;;1.48;0.73;;;15.50;58.50;;;;;;5021774;28;20143;-76
2022/04/20 05:18:06;;;;;;;1.65;0.77;;;15.50;58.40;;;;;;5004900;28;20576;-75
2022/04/20 05:20:34;;;;;;;1.20;0.80;;;15.50;58.50;;;;;;4997733;28;20148;-76
2022/04/20 05:23:01;;;;;;;2.10;0.80;;;15.50;58.40;;;;;;5022827;28;20048;-76
2022/04/20 05:25:30;;;;;;;0.95;0.60;;;15.50;58.40;;;;;;5015712;28;20050;-75
2022/04/20 05:27:56;;;;;;;1.00;0.60;;;15.50;58.50;;;;;;5020940;28;20480;-75
2022/04/20 05:30:23;;;;;;;1.55;0.80;;;15.50;58.40;;;;;;5019214;28;20124;-76
2022/04/20 05:32:50;;;;;;;1.10;0.70;;;15.50;58.50;;;;;;5022416;28;20052;-76
2022/04/20 05:35:36;;;;;;;1.20;0.70;;;15.50;58.40;;;;;;5021306;28;20056;-75
2022/04/20 05:43:52;;;;;;;1.67;0.90;;;15.50;58.50;;;;;;4959197;28;20141;-76
2022/04/20 05:46:29;;;;;;;1.20;0.73;;;15.50;58.40;;;;;;5003403;28;20054;-75
2022/04/20 05:48:56;;;;;;;1.77;0.80;;;15.50;58.50;;;;;;5008406;28;20046;-75
2022/04/20 05:51:29;;;;;;;1.58;0.88;;;15.50;58.40;;;;;;5028272;28;20069;-75
2022/04/20 05:54:06;;;;;;;1.77;0.88;;;15.50;58.50;;;;;;5024647;28;20065;-75
2022/04/20 05:56:34;;;;;;;1.67;0.80;;;15.50;58.50;;;;;;5033431;28;20029;-75
2022/04/20 05:59:02;;;;;;;1.90;0.80;;;15.50;58.60;;;;;;5029319;28;20041;-75
2022/04/20 06:01:33;;;;;;;1.27;0.70;;;15.60;58.40;;;;;;5011293;28;20148;-75
2022/04/20 06:04:03;;;;;;;1.50;0.85;;;15.50;58.20;;;;;;5028131;28;20056;-76
2022/04/20 06:06:35;;;;;;;1.52;0.80;;;15.50;58.20;;;;;;5017806;28;20069;-75
2022/04/20 06:09:06;;;;;;;1.88;0.90;;;15.50;58.20;;;;;;5021641;28;20256;-75
2022/04/20 06:11:34;;;;;;;2.10;0.90;;;15.40;58.00;;;;;;4997933;28;20048;-75
2022/04/20 06:14:01;;;;;;;1.60;0.95;;;15.50;57.90;;;;;;4995212;28;20072;-76
2022/04/20 06:16:29;;;;;;;1.88;0.90;;;15.50;57.90;;;;;;5019976;28;20037;-75
2022/04/20 06:18:56;;;;;;;1.27;0.80;;;15.50;57.80;;;;;;5021692;28;20049;-76
2022/04/20 06:21:24;;;;;;;2.20;0.90;;;15.50;57.70;;;;;;5015491;28;20117;-76
2022/04/20 06:23:54;;;;;;;2.03;1.00;;;15.40;57.70;;;;;;5021384;28;20068;-75
2022/04/20 06:26:21;;;;;;;1.40;0.80;;;15.50;57.80;;;;;;5010255;28;20099;-75
2022/04/20 06:28:53;;;;;;;1.92;1.00;;;15.50;57.80;;;;;;4994404;28;20339;-76
2022/04/20 06:31:20;;;;;;;1.52;1.00;;;15.50;57.80;;;;;;5018885;28;20503;-75
2022/04/20 06:33:47;;;;;;;1.40;0.73;;;15.50;57.80;;;;;;5020555;28;20124;-75
2022/04/20 06:36:16;;;;;;;2.72;0.88;;;15.50;57.80;;;;;;5014043;28;20054;-75
2022/04/20 06:38:43;;;;;;;1.58;0.80;;;15.50;57.80;;;;;;5017699;28;20419;-75
2022/04/20 06:41:10;;;;;;;1.40;0.80;;;15.50;57.80;;;;;;5015393;28;20046;-75
2022/04/20 06:43:43;;;;;;;1.30;0.85;;;15.50;57.80;;;;;;5017486;28;20516;-76
2022/04/20 06:46:13;;;;;;;1.30;0.90;;;15.50;57.80;;;;;;5017269;28;20038;-75
2022/04/20 06:48:39;;;;;;;1.85;1.00;;;15.60;57.90;;;;;;5020279;28;20429;-75
2022/04/20 06:51:06;;;;;;;1.10;0.75;;;15.50;57.70;;;;;;5014943;28;20038;-75
2022/04/20 06:58:31;;;;;;;1.88;0.90;;;15.50;57.80;;;;;;5014042;28;20069;-76
2022/04/20 06:59:16;;;;;;;1.35;0.77;;;15.60;57.80;;;;;;5012966;28;20563;-75
2022/04/20 07:01:44;;;;;;;1.23;0.70;;;15.60;57.80;;;;;;5017595;28;20500;-77
2022/04/20 07:04:11;;;;;;;2.25;1.00;;;15.60;57.80;;;;;;5017413;28;20568;-75
2022/04/20 07:06:38;;;;;;;2.10;1.08;;;15.60;57.90;;;;;;5018884;28;20068;-76
2022/04/20 07:09:06;;;;;;;2.90;0.95;;;15.60;57.90;;;;;;5020515;28;20136;-76
2022/04/20 07:11:33;;;;;;;2.78;1.00;;;15.60;57.90;;;;;;5017508;28;20109;-75
2022/04/20 07:14:00;;;;;;;1.75;0.90;;;15.60;57.80;;;;;;5015509;28;20041;-75
2022/04/20 07:16:28;;;;;;;1.20;0.73;;;15.60;57.80;;;;;;5018157;28;20192;-76
2022/04/20 07:18:57;;;;;;;1.65;0.90;;;15.60;57.90;;;;;;5017702;28;20538;-75
2022/04/20 07:21:32;;;;;;;2.72;1.00;;;15.60;57.90;;;;;;5017479;28;20132;-76
2022/04/20 07:24:03;;;;;;;1.88;0.90;;;15.60;57.80;;;;;;5016904;28;20041;-76
2022/04/20 07:26:39;;;;;;;2.03;0.98;;;15.60;57.90;;;;;;5010907;28;20415;-75
2022/04/20 07:29:06;;;;;;;2.80;1.00;;;15.60;57.90;;;;;;5015698;28;20047;-76
2022/04/20 07:31:33;;;;;;;2.35;1.02;;;15.60;57.90;;;;;;5020156;28;20498;-76
2022/04/20 07:34:04;;;;;;;1.90;1.02;;;15.70;58.00;;;;;;5021190;28;20046;-76
2022/04/20 07:36:34;;;;;;;2.22;1.05;;;15.70;57.90;;;;;;5019205;28;20076;-75
2022/04/20 07:39:06;;;;;;;;;;;15.60;57.90;;;;;;5002015;28;20061;-76
2022/04/20 07:41:33;;;;;;;1.65;0.95;;;15.70;58.00;;;;;;5020985;28;20342;-76
2022/04/20 07:44:00;;;;;;;1.50;0.80;;;15.70;57.90;;;;;;5016148;28;20117;-75
2022/04/20 07:46:28;;;;;;;1.50;0.82;;;15.70;57.90;;;;;;4997152;28;20037;-75
2022/04/20 07:48:55;;;;;;;2.28;1.00;;;15.70;57.90;;;;;;5022673;28;20127;-75
2022/04/20 07:51:23;;;;;;;1.65;0.70;;;15.70;57.90;;;;;;5034944;28;20038;-76
2022/04/20 07:53:50;;;;;;;2.20;0.98;;;15.70;57.90;;;;;;5025695;28;20073;-75
2022/04/20 07:56:18;;;;;;;1.98;0.90;;;15.70;57.90;;;;;;5026779;28;20136;-76
2022/04/20 07:58:45;;;;;;;2.60;1.17;;;15.70;57.80;;;;;;5011038;28;20296;-75
2022/04/20 08:01:12;;;;;;;1.80;1.00;;;15.70;57.80;;;;;;5005755;28;20060;-75
2022/04/20 08:03:42;;;;;;;2.05;0.90;;;15.70;57.80;;;;;;4976966;28;20041;-76
2022/04/20 08:06:09;;;;;;;2.13;0.90;;;15.70;57.80;;;;;;4999129;28;20049;-76
2022/04/20 08:08:39;;;;;;;1.30;0.73;;;15.70;57.80;;;;;;4997854;28;20053;-75
2022/04/20 08:11:06;;;;;;;1.20;0.70;;;15.70;57.80;;;;;;5003600;28;20046;-75
2022/04/20 08:16:18;;;;;;;1.50;0.90;;;15.80;57.90;;;;;;4996092;28;20050;-75
2022/04/20 08:18:45;;;;;;;1.60;0.90;;;15.70;57.80;;;;;;4993755;28;20046;-75
2022/04/20 08:21:30;;;;;;;1.77;0.95;;;15.80;57.80;;;;;;4986523;28;20124;-75
2022/04/20 08:24:06;;;;;;;3.38;0.88;;;15.80;57.90;;;;;;4981173;28;20045;-76
2022/04/20 08:26:33;;;;;;;1.75;0.80;;;15.80;57.90;;;;;;5000985;28;20109;-75
2022/04/20 08:29:00;;;;;;;1.33;0.90;;;15.80;57.80;;;;;;4995407;28;20045;-75
2022/04/20 08:31:29;;;;;;;1.60;0.90;;;15.80;57.90;;;;;;4982951;28;20054;-75
2022/04/20 08:34:07;;;;;;;1.63;0.90;;;15.80;57.90;;;;;;5004042;28;20038;-76
2022/04/20 08:36:34;;;;;;;1.80;1.00;;;15.80;57.90;;;;;;4970472;28;20065;-76
2022/04/20 08:39:08;;;;;;;1.85;0.90;;;15.90;57.90;;;;;;4995315;28;20528;-76
2022/04/20 08:41:36;;;;;;;2.47;0.80;;;15.80;57.80;;;;;;5003191;28;20311;-76
2022/04/20 08:44:06;;;;;;;1.60;0.80;;;15.80;57.90;;;;;;4983406;28;20096;-76
2022/04/20 08:46:39;;;;;;;2.78;0.90;;;15.90;58.00;;;;;;4995343;28;20045;-76
2022/04/20 08:49:07;;;;;;;2.03;1.05;;;15.80;57.80;;;;;;4997874;28;20041;-76
2022/04/20 08:54:25;;;;;;;1.70;1.00;;;15.90;57.90;;;;;;4998557;28;20045;-75
2022/04/20 08:59:43;;;;;;;1.85;0.80;;;15.90;57.80;;;;;;5002887;28;20049;-76
2022/04/20 09:02:29;;;;;;;4.13;1.00;;;15.90;57.80;;;;;;5003136;28;20053;-76
2022/04/20 09:04:57;;;;;;;1.70;1.00;;;15.90;57.90;;;;;;5002210;28;20053;-76
2022/04/20 09:07:42;;;;;;;1.80;1.05;;;15.90;57.80;;;;;;5000074;28;20048;-75
2022/04/20 09:10:29;;;;;;;1.55;0.90;;;15.90;57.80;;;;;;5002094;28;20155;-75
2022/04/20 09:13:07;;;;;;;1.73;0.88;;;15.90;57.70;;;;;;4982981;28;20054;-76
2022/04/20 09:15:54;;;;;;;1.65;0.88;;;15.90;57.70;;;;;;4997468;28;20100;-75
2022/04/20 09:18:23;;;;;;;2.17;1.00;;;15.90;57.70;;;;;;5002374;28;20112;-76
2022/04/20 09:21:05;;;;;;;;;;;16.00;57.70;;;;;;5003212;28;20046;-76
2022/04/20 09:23:35;;;;;;;2.63;1.10;;;16.00;57.70;;;;;;4995367;28;20555;-75
2022/04/20 09:26:12;;;;;;;2.03;1.10;;;16.00;57.70;;;;;;5003750;28;20073;-76
2022/04/20 09:28:42;;;;;;;1.60;0.77;;;16.00;57.70;;;;;;5000609;28;20408;-76
2022/04/20 09:31:11;;;;;;;1.83;1.02;;;16.00;57.60;;;;;;4988105;28;20056;-75
2022/04/20 09:33:42;;;;;;;1.23;0.80;;;16.00;57.60;;;;;;4996012;28;20125;-76
2022/04/20 09:36:41;;;;;;;1.50;1.00;;;16.00;57.70;;;;;;5003727;28;20112;-75
2022/04/20 09:39:21;;;;;;;1.77;1.00;;;16.00;57.70;;;;;;4999501;28;20473;-76
2022/04/20 09:41:59;;;;;;;2.50;1.08;;;16.00;57.60;;;;;;5001835;28;20072;-76
2022/04/20 09:44:32;;;;;;;2.05;0.90;;;16.00;57.50;;;;;;4995642;28;20050;-76
2022/04/20 09:49:53;;;;;;;2.70;0.90;;;16.10;57.60;;;;;;4994307;28;20055;-75
2022/04/20 09:52:36;;;;;;;1.75;1.00;;;16.10;57.50;;;;;;5016972;28;20045;-75
2022/04/20 09:55:06;;;;;;;1.58;0.90;;;16.10;57.60;;;;;;5004939;28;20077;-75
2022/04/20 09:57:37;;;;;;;1.45;1.00;;;16.00;57.40;;;;;;5000664;28;20050;-75
2022/04/20 10:00:11;;;;;;;1.40;0.80;;;16.10;57.60;;;;;;4982583;28;20057;-76
2022/04/20 10:02:38;;;;;;;2.60;0.98;;;16.10;57.50;;;;;;5010277;28;20049;-75
2022/04/20 10:05:07;;;;;;;2.88;0.90;;;16.10;57.40;;;;;;4997640;28;20045;-76
2022/04/20 10:07:35;;;;;;;2.05;1.10;;;16.10;57.40;;;;;;5020088;28;20500;-75
2022/04/20 10:10:05;;;;;;;2.00;0.93;;;16.10;57.40;;;;;;5012194;28;20045;-75
2022/04/20 10:12:39;;;;;;;2.03;1.02;;;16.10;57.40;;;;;;5011719;28;20053;-75
2022/04/20 10:18:06;;;;;;;2.20;1.10;;;16.10;57.40;;;;;;4959042;28;20039;-75
2022/04/20 10:20:35;;;;;;;1.92;0.90;;;16.20;57.50;;;;;;4958556;28;20049;-76
2022/04/20 10:23:05;;;;;;;2.97;1.10;;;16.20;57.40;;;;;;4991520;28;20065;-75
2022/04/20 10:25:32;;;;;;;1.48;0.90;;;16.20;57.50;;;;;;5019664;28;20506;-76
2022/04/20 10:28:14;;;;;;;1.48;0.90;;;16.20;57.40;;;;;;5020458;28;20053;-75
2022/04/20 10:31:13;;;;;;;1.65;1.02;;;16.20;57.50;;;;;;5022545;28;20130;-75
2022/04/20 10:33:43;;;;;;;;;;;16.20;57.50;;;;;;5022448;28;20042;-75
2022/04/20 10:36:14;;;;;;;1.88;0.90;;;16.20;57.50;;;;;;5017135;28;19967;-75
2022/04/20 10:38:44;;;;;;;1.75;0.90;;;16.20;57.70;;;;;;5014321;28;20523;-75
2022/04/20 10:41:11;;;;;;;1.70;1.10;;;16.20;57.50;;;;;;5017693;28;20056;-75
2022/04/20 10:44:06;;;;;;;1.70;1.05;;;16.20;57.40;;;;;;5018904;28;20058;-75
2022/04/20 10:46:33;;;;;;;1.67;0.90;;;16.20;57.40;;;;;;5020480;28;20033;-76
2022/04/20 10:49:16;;;;;;;2.30;0.88;;;16.20;57.30;;;;;;5019770;28;20053;-76
2022/04/20 10:51:45;;;;;;;1.65;0.88;;;16.20;57.40;;;;;;4999470;28;20041;-75
2022/04/20 10:54:28;;;;;;;1.67;1.05;;;16.20;57.40;;;;;;5021978;28;20045;-76
2022/04/20 10:57:13;;;;;;;2.53;1.00;;;16.20;57.40;;;;;;5011950;28;20073;-75
2022/04/20 11:00:27;;;;;;;1.60;0.93;;;16.20;57.30;;;;;;5018357;28;20041;-75
2022/04/20 11:03:10;;;;;;;2.03;0.90;;;16.20;57.30;;;;;;5006957;28;20053;-76
2022/04/20 11:05:49;;;;;;;;;;;16.20;57.40;;;;;;5020969;28;20054;-75
2022/04/20 11:08:22;;;;;;;1.65;0.85;;;16.30;57.40;;;;;;5026513;28;20369;-75
2022/04/20 11:19:53;;;;;;;1.48;0.73;;;16.30;57.40;;;;;;5030896;28;20040;-76
2022/04/20 11:22:46;;;;;;;1.38;0.70;;;16.20;57.30;;;;;;5018674;28;20052;-75
2022/04/20 11:25:20;;;;;;;1.52;0.90;;;16.20;57.30;;;;;;5018719;28;20045;-75
2022/04/20 11:27:47;;;;;;;1.75;0.80;;;16.20;57.20;;;;;;5016669;28;20128;-75
2022/04/20 11:30:22;;;;;;;1.30;0.75;;;16.30;57.30;;;;;;5017609;28;20095;-75
2022/04/20 11:33:08;;;;;;;3.25;0.85;;;16.30;57.30;;;;;;5021610;28;20670;-75
2022/04/20 11:35:34;;;;;;;1.75;0.80;;;16.30;57.30;;;;;;5013210;28;20056;-75
2022/04/20 11:38:14;;;;;;;1.73;0.82;;;16.30;57.30;;;;;;5017574;28;20037;-75
2022/04/20 11:40:43;;;;;;;2.20;0.88;;;16.30;57.30;;;;;;5019479;28;20041;-75
2022/04/20 11:43:14;;;;;;;3.03;1.15;;;16.30;57.30;;;;;;5017394;28;20053;-75
2022/04/20 11:45:41;;;;;;;1.70;0.90;;;16.30;57.20;;;;;;5028933;28;20115;-75
2022/04/20 11:48:15;;;;;;;1.65;0.82;;;16.30;57.20;;;;;;5032166;28;20041;-75
2022/04/20 11:50:42;;;;;;;2.20;1.10;;;16.30;57.20;;;;;;5027435;28;20049;-75
2022/04/20 11:53:35;;;;;;;2.42;0.80;;;16.30;57.20;;;;;;5026147;28;20117;-75
2022/04/20 11:56:04;;;;;;;1.40;0.70;;;16.30;57.20;;;;;;5021467;28;20140;-75
2022/04/20 11:58:36;;;;;;;1.95;0.90;;;16.30;57.20;;;;;;5016858;28;20131;-75
2022/04/20 12:01:08;;;;;;;3.17;0.88;;;16.30;57.10;;;;;;5015798;28;20045;-75
2022/04/20 12:03:42;;;;;;;2.03;0.90;;;16.30;57.00;;;;;;5000700;28;20499;-75
2022/04/20 12:06:18;;;;;;;2.55;0.80;;;16.30;57.00;;;;;;5020992;28;20045;-76
2022/04/20 12:08:47;;;;;;;1.60;0.85;;;16.30;56.90;;;;;;5004678;28;20055;-75
2022/04/20 12:11:15;;;;;;;2.85;1.13;;;16.30;57.00;;;;;;5020645;28;20038;-76
2022/04/20 12:13:44;;;;;;;2.78;0.88;;;16.30;57.00;;;;;;5021249;28;20045;-75
2022/04/20 12:16:17;;;;;;;1.75;0.82;;;16.30;57.00;;;;;;5004711;28;20137;-75
2022/04/20 12:18:46;;;;;;;1.50;0.77;;;16.30;57.00;;;;;;5005591;28;20041;-75
2022/04/20 12:21:41;;;;;;;2.95;0.90;;;16.30;57.00;;;;;;5023444;28;20037;-76
2022/04/20 12:24:11;;;;;;;1.63;0.88;;;16.40;57.00;;;;;;5022741;28;20041;-75
2022/04/20 12:26:44;;;;;;;1.40;0.80;;;16.30;57.00;;;;;;5021180;28;20087;-75
2022/04/20 12:29:16;;;;;;;1.60;0.80;;;16.30;57.00;;;;;;5020092;28;20136;-75
2022/04/20 12:31:44;;;;;;;2.00;0.75;;;16.30;57.00;;;;;;5023427;28;20099;-76
2022/04/20 12:34:16;;;;;;;1.42;0.77;;;16.30;57.00;;;;;;5022972;28;20539;-75
2022/04/20 12:36:55;;;;;;;2.25;0.75;;;16.30;56.80;;;;;;5023508;28;20045;-74
2022/04/20 12:39:31;;;;;;;2.42;0.77;;;16.30;57.00;;;;;;5025077;28;20057;-75
2022/04/20 12:42:09;;;;;;;1.30;0.80;;;16.30;56.90;;;;;;5002057;28;20053;-75
2022/04/20 12:44:48;;;;;;;1.45;0.60;;;16.30;57.00;;;;;;5016933;28;20041;-75
2022/04/20 12:47:39;;;;;;;1.27;0.80;;;16.30;57.10;;;;;;5011212;28;20131;-75
2022/04/20 12:50:24;;;;;;;1.33;0.80;;;16.30;57.00;;;;;;5020025;28;20041;-75
2022/04/20 12:52:53;;;;;;;1.50;0.80;;;16.30;56.90;;;;;;4998005;28;20065;-75
2022/04/20 12:55:20;;;;;;;1.40;0.90;;;16.30;56.80;;;;;;5023544;28;20051;-75
2022/04/20 13:03:36;;;;;;;1.10;0.70;;;16.30;57.20;;;;;;5015075;28;20106;-75
2022/04/20 13:06:10;;;;;;;1.80;0.80;;;16.30;57.10;;;;;;5023462;28;20510;-76
2022/04/20 13:08:45;;;;;;;1.40;0.70;;;16.30;57.00;;;;;;5021689;28;20119;-75
2022/04/20 13:11:21;;;;;;;1.70;0.75;;;16.30;57.10;;;;;;5022451;28;20116;-75
2022/04/20 13:13:52;;;;;;;1.15;0.80;;;16.30;57.10;;;;;;5014035;28;20069;-75
2022/04/20 13:16:23;;;;;;;2.03;0.90;;;16.30;57.10;;;;;;5023081;28;20052;-75
2022/04/20 13:18:53;;;;;;;1.63;0.70;;;16.40;57.20;;;;;;5016755;28;20497;-75
2022/04/20 13:21:42;;;;;;;1.60;0.80;;;16.30;57.00;;;;;;5021476;28;20644;-75
2022/04/20 13:24:09;;;;;;;2.13;1.05;;;16.30;57.00;;;;;;5019478;28;20116;-75
2022/04/20 13:29:22;;;;;;;2.15;0.90;;;16.30;57.00;;;;;;5004791;28;20048;-75
2022/04/20 13:32:07;;;;;;;1.38;0.60;;;16.30;57.10;;;;;;4999491;28;20099;-75
2022/04/20 13:34:35;;;;;;;2.28;0.80;;;16.30;57.10;;;;;;5011724;28;20531;-75
2022/04/20 13:37:09;;;;;;;1.83;0.80;;;16.30;57.00;;;;;;5011154;28;20045;-75
2022/04/20 13:39:43;;;;;;;1.35;0.80;;;16.30;57.10;;;;;;5014150;28;20042;-76
2022/04/20 13:42:23;;;;;;;1.27;0.80;;;16.30;56.90;;;;;;5021545;28;20072;-76
2022/04/20 13:45:09;;;;;;;1.75;0.70;;;16.30;57.00;;;;;;5019559;28;20045;-75
2022/04/20 13:47:36;;;;;;;1.60;0.73;;;16.20;56.90;;;;;;5034731;28;20042;-75
2022/04/20 13:50:03;;;;;;;2.03;0.70;;;16.30;57.00;;;;;;5037200;28;20053;-74
2022/04/20 13:52:38;;;;;;;1.30;0.75;;;16.30;57.00;;;;;;5033538;28;20076;-75
2022/04/20 13:55:09;;;;;;;2.00;0.70;;;16.30;56.90;;;;;;5020128;28;20041;-75
2022/04/20 13:57:39;;;;;;;2.35;0.80;;;16.30;57.00;;;;;;5012593;28;20055;-75
2022/04/20 14:00:09;;;;;;;1.50;0.80;;;16.30;57.00;;;;;;5018443;28;20787;-75
2022/04/20 14:02:37;;;;;;;1.15;0.73;;;16.30;57.00;;;;;;5013289;28;20499;-75